createdAt,value
2022-09-06T00:04:38.531Z,101585.00
2022-09-06T00:09:37.727Z,101582.60
2022-09-06T00:14:36.815Z,101580.40
2022-09-06T00:19:38.197Z,101578.60
2022-09-06T00:24:40.100Z,101586.00
2022-09-06T00:29:39.574Z,101589.80
2022-09-06T00:34:39.157Z,101590.20
2022-09-06T00:39:38.535Z,101588.20
2022-09-06T00:44:37.525Z,101590.60
2022-09-06T00:49:42.347Z,101587.20
2022-09-06T00:54:44.008Z,101581.60
2022-09-06T00:59:44.586Z,101574.40
2022-09-06T01:04:46.449Z,101580.80
2022-09-06T01:10:10.662Z,101582.40
2022-09-06T01:15:29.957Z,101580.40
2022-09-06T01:20:51.887Z,101577.60
2022-09-06T01:26:09.022Z,101578.00
2022-09-06T01:31:31.162Z,101573.40
2022-09-06T01:36:54.350Z,101572.00
2022-09-06T01:41:54.404Z,101575.60
2022-09-06T01:47:05.062Z,101570.80
2022-09-06T01:52:19.725Z,101576.40
2022-09-06T01:57:36.469Z,101578.60
2022-09-06T02:02:49.868Z,101575.00
2022-09-06T02:07:54.126Z,101569.40
2022-09-06T02:13:01.180Z,101573.20
2022-09-06T02:18:07.661Z,101577.60
2022-09-06T02:23:11.079Z,101576.20
2022-09-06T02:28:11.328Z,101573.00
2022-09-06T02:33:15.795Z,101573.80
2022-09-06T02:38:14.863Z,101575.40
2022-09-06T02:43:14.441Z,101576.20
2022-09-06T02:48:14.747Z,101572.00
2022-09-06T02:53:16.868Z,101575.40
2022-09-06T02:58:16.516Z,101570.00
2022-09-06T03:03:14.908Z,101569.40
2022-09-06T03:08:13.995Z,101573.40
2022-09-06T03:13:12.906Z,101563.40
2022-09-06T03:18:11.596Z,101561.40
2022-09-06T03:23:11.319Z,101557.60
2022-09-06T03:28:09.976Z,101565.60
2022-09-06T03:33:08.992Z,101573.20
2022-09-06T03:38:07.718Z,101568.20
2022-09-06T03:43:05.928Z,101573.80
2022-09-06T03:48:06.352Z,101577.00
2022-09-06T03:53:05.265Z,101571.40
2022-09-06T03:58:03.927Z,101571.20
2022-09-06T04:03:02.390Z,101568.40
2022-09-06T04:08:01.753Z,101569.80
2022-09-06T04:13:00.734Z,101567.60
2022-09-06T04:17:59.903Z,101568.20
2022-09-06T04:22:58.763Z,101561.20
2022-09-06T04:27:58.337Z,101557.00
2022-09-06T04:32:58.095Z,101566.00
2022-09-06T04:37:57.090Z,101565.60
2022-09-06T04:42:56.249Z,101568.00
2022-09-06T04:47:55.258Z,101569.40
2022-09-06T04:52:53.959Z,101570.20
2022-09-06T04:57:52.415Z,101569.40
2022-09-06T05:02:51.232Z,101566.20
2022-09-06T05:07:52.908Z,101566.00
2022-09-06T05:12:55.340Z,101563.40
2022-09-06T05:17:55.830Z,101568.00
2022-09-06T05:22:57.957Z,101569.80
2022-09-06T05:27:57.440Z,101569.60
2022-09-06T05:32:57.198Z,101573.40
2022-09-06T05:37:55.635Z,101574.80
2022-09-06T05:42:54.074Z,101568.80
2022-09-06T05:47:52.783Z,101573.20
2022-09-06T05:52:54.666Z,101573.80
2022-09-06T05:57:53.690Z,101572.60
2022-09-06T06:02:53.754Z,101573.60
2022-09-06T06:07:52.846Z,101572.60
2022-09-06T06:12:51.778Z,101567.20
2022-09-06T06:17:50.999Z,101567.20
2022-09-06T06:22:50.208Z,101564.00
2022-09-06T06:27:49.264Z,101564.60
2022-09-06T06:32:48.451Z,101568.20
2022-09-06T06:37:47.049Z,101568.80
2022-09-06T06:42:46.298Z,101573.20
2022-09-06T06:47:45.538Z,101577.80
2022-09-06T06:52:43.906Z,101574.20
2022-09-06T06:57:43.423Z,101575.40
2022-09-06T07:02:41.949Z,101584.20
2022-09-06T07:07:41.639Z,101583.60
2022-09-06T07:12:40.715Z,101585.20
2022-09-06T07:17:39.954Z,101589.60
2022-09-06T07:22:38.670Z,101593.80
2022-09-06T07:27:52.870Z,101593.00
2022-09-06T07:32:52.169Z,101587.60
2022-09-06T07:37:59.875Z,101588.00
2022-09-06T07:43:00.844Z,101584.20
2022-09-06T07:48:00.933Z,101587.40
2022-09-06T07:53:09.701Z,101588.60
2022-09-06T07:58:12.687Z,101578.00
2022-09-06T08:03:11.347Z,101579.60
2022-09-06T08:13:29.577Z,101586.60
2022-09-06T08:18:29.248Z,101586.00
2022-09-06T08:23:29.378Z,101578.20
2022-09-06T08:28:29.178Z,101572.80
2022-09-06T08:33:28.588Z,101581.80
2022-09-06T08:38:29.709Z,101578.20
2022-09-06T08:43:33.187Z,101570.80
2022-09-06T08:48:38.703Z,101572.40
2022-09-06T08:53:46.682Z,101571.20
2022-09-06T08:59:05.516Z,101560.00
2022-09-06T09:04:14.165Z,101551.00
2022-09-06T09:09:17.805Z,101545.80
2022-09-06T09:14:27.148Z,101540.20
2022-09-06T09:19:26.661Z,101535.00
2022-09-06T09:24:25.723Z,101524.80
2022-09-06T09:29:28.719Z,101520.60
2022-09-06T09:34:38.937Z,101521.40
2022-09-06T09:39:41.517Z,101522.60
2022-09-06T09:44:45.706Z,101520.60
2022-09-06T09:49:44.413Z,101516.80
2022-09-06T09:54:46.933Z,101514.60
2022-09-06T09:59:53.922Z,101500.60
2022-09-06T10:05:00.548Z,101506.20
2022-09-06T10:10:07.601Z,101507.00
2022-09-06T10:15:08.822Z,101492.40
2022-09-06T10:20:13.190Z,101485.60
2022-09-06T10:25:55.487Z,101489.20
2022-09-06T10:31:34.319Z,101484.80
2022-09-06T10:36:39.272Z,101480.40
2022-09-06T10:42:02.882Z,101480.20
2022-09-06T10:47:10.522Z,101476.60
2022-09-06T10:52:16.260Z,101477.80
2022-09-06T11:13:43.584Z,101462.60
2022-09-06T11:18:48.202Z,101458.80
2022-09-06T11:23:53.147Z,101455.60
2022-09-06T11:28:57.954Z,101449.60
2022-09-06T11:34:11.595Z,101446.60
2022-09-06T11:39:12.352Z,101444.80
2022-09-06T11:44:12.365Z,101437.00
2022-09-06T11:49:29.371Z,101437.80
2022-09-06T11:54:46.394Z,101436.80
2022-09-06T11:59:58.274Z,101430.20
2022-09-06T12:05:26.254Z,101420.00
2022-09-06T12:10:59.416Z,101406.80
2022-09-06T12:15:59.845Z,101409.80
2022-09-06T12:21:09.190Z,101408.40
2022-09-06T12:26:10.259Z,101401.80
2022-09-06T12:31:43.224Z,101393.60
2022-09-06T12:36:54.931Z,101393.60
2022-09-06T12:41:58.773Z,101387.40
2022-09-06T12:47:00.758Z,101375.80
2022-09-06T12:52:12.815Z,101377.40
2022-09-06T12:57:22.768Z,101376.80
2022-09-06T13:02:28.998Z,101385.20
2022-09-06T13:07:31.915Z,101380.00
2022-09-06T13:12:36.611Z,101371.40
2022-09-06T13:17:38.059Z,101374.20
2022-09-06T13:22:52.082Z,101374.60
2022-09-06T13:27:57.705Z,101374.60
2022-09-06T13:32:57.104Z,101369.60
2022-09-06T13:38:15.468Z,101383.80
2022-09-06T13:43:16.499Z,101384.20
2022-09-06T13:48:28.819Z,101379.60
2022-09-06T13:53:34.927Z,101370.40
2022-09-06T13:58:34.653Z,101365.60
2022-09-06T14:03:35.570Z,101361.20
2022-09-06T14:08:56.308Z,101346.00
2022-09-06T14:13:56.495Z,101339.40
2022-09-06T14:18:55.432Z,101334.80
2022-09-06T14:23:55.015Z,101331.40
2022-09-06T14:28:54.232Z,101336.00
2022-09-06T14:33:53.900Z,101338.00
2022-09-06T14:38:54.961Z,101326.80
2022-09-06T14:43:57.292Z,101327.60
2022-09-06T14:49:02.925Z,101324.40
2022-09-06T14:54:06.999Z,101311.20
2022-09-06T14:59:06.162Z,101309.60
2022-09-06T15:04:07.988Z,101310.60
2022-09-06T15:09:07.269Z,101298.80
2022-09-06T15:14:09.269Z,101297.00
2022-09-06T15:19:10.571Z,101292.00
2022-09-06T15:24:12.194Z,101287.60
2022-09-06T15:29:13.481Z,101274.40
2022-09-06T15:34:13.973Z,101266.20
2022-09-06T15:39:13.255Z,101261.20
2022-09-06T15:44:16.261Z,101255.00
2022-09-06T15:49:26.920Z,101253.80
2022-09-06T15:54:41.784Z,101255.00
2022-09-06T15:59:42.285Z,101248.40
2022-09-06T16:04:41.725Z,101252.60
2022-09-06T16:09:41.117Z,101249.40
2022-09-06T16:14:42.612Z,101242.20
2022-09-06T16:19:41.998Z,101235.40
2022-09-06T16:24:41.247Z,101233.00
2022-09-06T16:29:41.537Z,101232.40
2022-09-06T16:34:40.829Z,101228.40
2022-09-06T16:39:40.650Z,101226.00
2022-09-06T16:44:42.134Z,101223.40
2022-09-06T16:49:41.727Z,101221.00
2022-09-06T16:54:40.130Z,101223.00
2022-09-06T16:59:39.385Z,101219.00
2022-09-06T17:04:38.709Z,101223.20
2022-09-06T17:09:37.297Z,101219.60
2022-09-06T17:14:37.288Z,101218.20
2022-09-06T17:19:41.615Z,101220.80
2022-09-06T17:24:41.582Z,101220.00
2022-09-06T17:29:41.400Z,101216.60
2022-09-06T17:34:41.280Z,101215.20
2022-09-06T17:39:41.453Z,101218.20
2022-09-06T17:44:40.887Z,101223.00
2022-09-06T17:49:39.987Z,101226.60
2022-09-06T17:54:39.098Z,101229.00
2022-09-06T17:59:40.067Z,101226.00
2022-09-06T18:04:39.499Z,101234.60
2022-09-06T18:09:40.673Z,101230.60
2022-09-06T18:14:40.399Z,101234.20
2022-09-06T18:19:41.617Z,101231.80
2022-09-06T18:24:40.430Z,101232.20
2022-09-06T18:29:39.563Z,101235.60
2022-09-06T18:34:39.357Z,101235.00
2022-09-06T18:39:39.815Z,101244.60
2022-09-06T18:44:39.658Z,101243.80
2022-09-06T18:49:43.803Z,101239.00
2022-09-06T18:54:45.092Z,101244.20
2022-09-06T18:59:44.688Z,101239.20
2022-09-06T19:04:43.530Z,101237.00
2022-09-06T19:09:42.990Z,101240.80
2022-09-06T19:14:42.127Z,101238.20
2022-09-06T19:19:41.223Z,101232.00
2022-09-06T19:24:40.768Z,101231.80
2022-09-06T19:29:39.970Z,101230.00
2022-09-06T19:34:39.581Z,101227.80
2022-09-06T19:39:38.136Z,101230.20
2022-09-06T19:44:37.154Z,101228.20
2022-09-06T19:49:36.371Z,101219.80
2022-09-06T19:54:35.052Z,101220.20
2022-09-06T19:59:36.339Z,101217.60
2022-09-06T20:04:35.109Z,101215.40
2022-09-06T20:09:33.707Z,101217.80
2022-09-06T20:14:33.213Z,101216.80
2022-09-06T20:19:32.127Z,101216.20
2022-09-06T20:24:31.068Z,101205.40
2022-09-06T20:29:29.891Z,101203.40
2022-09-06T20:34:29.037Z,101205.80
2022-09-06T20:39:28.227Z,101215.00
2022-09-06T20:44:27.252Z,101209.20
2022-09-06T20:49:26.530Z,101207.80
2022-09-06T20:54:25.276Z,101208.60
2022-09-06T20:59:24.631Z,101203.40
2022-09-06T21:04:26.072Z,101195.20
2022-09-06T21:09:25.001Z,101199.80
2022-09-06T21:14:24.166Z,101194.20
2022-09-06T21:19:23.317Z,101189.60
2022-09-06T21:24:22.431Z,101195.00
2022-09-06T21:29:21.737Z,101189.40
2022-09-06T21:34:20.437Z,101189.00
2022-09-06T21:39:19.863Z,101187.00
2022-09-06T21:44:18.987Z,101188.80
2022-09-06T21:49:18.771Z,101178.20
2022-09-06T21:54:29.768Z,101175.40
2022-09-06T21:59:28.521Z,101175.40
2022-09-06T22:04:28.841Z,101181.00
2022-09-06T22:09:28.752Z,101184.60
2022-09-06T22:14:28.547Z,101176.40
2022-09-06T22:19:29.206Z,101175.60
2022-09-06T22:24:29.715Z,101174.40
2022-09-06T22:29:30.604Z,101176.20
2022-09-06T22:34:30.649Z,101176.40
2022-09-06T22:39:31.338Z,101178.00
2022-09-06T22:44:31.922Z,101173.00
2022-09-06T22:49:32.250Z,101178.80
2022-09-06T22:54:32.442Z,101176.40
2022-09-06T22:59:32.904Z,101172.20
2022-09-06T23:04:34.006Z,101174.80
2022-09-06T23:09:33.714Z,101167.80
2022-09-06T23:14:34.698Z,101166.20
2022-09-06T23:19:35.164Z,101164.00
2022-09-06T23:24:35.369Z,101165.40
2022-09-06T23:29:35.345Z,101166.00
2022-09-06T23:34:35.191Z,101165.40
2022-09-06T23:39:35.203Z,101160.60
2022-09-06T23:44:34.374Z,101158.40
2022-09-06T23:49:33.595Z,101152.40
2022-09-06T23:54:33.069Z,101149.40
2022-09-06T23:59:32.564Z,101149.80
